world map with TRS marked

TRS - Airport

This information may not be accurate or current and is not valid for navigation or flight planning. No warranty of fitness for any purpose is made or implied.

flag of Friuli-Venezia Giuliaflag of Italy

Donate via PayPal

Additional information is available on the NEW Great Circle Mapper

Location
City:  Trieste, Friuli-Venezia Giulia, Italy
Name:Ronchi dei Legionari
ICAO / IATA:LIPQ / TRS

Details
Type:Airport (Aerodrome, Airfield)
Use:Public/Civil
Latitude:45°49'39"N (45.827500)
Longitude:13°28'20"E (13.472222)
Datum:WGS 1984
Elevation:37 ft (11 m)
Runways:1
Longest:9843 × 148 ft (3000 × 45 m)

Time
Timezone:UTC+1 (DST+4)
Local Time:

Weather
METAR:LIPQ  041350Z 10013KT CAVOK 11/M01 Q1024
TAF:LIPQ  041100Z 0412/0512 VRB05KT CAVOK

Related Locations
Nearby:
Farthest:CHT: 11932 mi / 19203 km
Waitangi [Tuuta], CIT, NZ

Find:

   beyond  
but within

Other Information
Maps:
Sources:

  


 


Great Circle Mapper   Great Circle Mapper
Great Circle Mapper FAQ   Great Circle Mapper FAQ
  Karl's Home Page
KLSē   KLSē Home
   GC on Facebook
Airlines of the World   Airlines of the World
Donate via PayPal


Copyright © 2004-2019, Karl L. Swartz. All rights reserved.
All trademarks mentioned herein belong to their respective owners.

Please see credits for attribution and copyright information.

Karl Swartz <karl@kls2.com>
  Powered by FreeBSD
Valid HTML 4.01!
Labeled with ICRA
hCard Microformat
Geo Microformat